Time;durP1;ratioP1;P1;durP2;ratioP2;P2;SDS_P1;SDS_P2;PMS_P1;PMS_P2;Temp;Humidity;BMP_temperature;BMP_pressure;BME280_temperature;BME280_humidity;BME280_pressure;Samples;Min_cycle;Max_cycle;Signal;HPM_P1;HPM_P2
2023/02/09 00:02:04;;;;;;;55.83;20.53;;;;;;;1.54;47.36;98944.66;5008841;28;20226;-69
2023/02/09 00:04:30;;;;;;;43.30;19.87;;;;;;;1.49;47.84;98937.06;5001355;28;20190;-69
2023/02/09 00:06:55;;;;;;;37.90;19.63;;;;;;;1.55;47.81;98941.19;4991999;28;20184;-68
2023/02/09 00:09:21;;;;;;;35.63;18.10;;;;;;;1.59;47.69;98939.34;5012438;28;20188;-73
2023/02/09 00:14:32;;;;;;;31.10;17.83;;;;;;;1.64;47.42;98937.44;5024603;28;20187;-72
2023/02/09 00:17:00;;;;;;;35.77;19.00;;;;;;;1.66;47.46;98939.06;5014648;28;20444;-74
2023/02/09 00:19:25;;;;;;;39.30;20.37;;;;;;;1.79;47.12;98938.63;5021639;28;21241;-72
2023/02/09 00:21:51;;;;;;;42.20;19.43;;;;;;;1.90;46.69;98935.69;5002318;28;20440;-70
2023/02/09 00:24:16;;;;;;;38.70;19.13;;;;;;;1.91;46.23;98937.38;5022724;28;20188;-69
2023/02/09 00:26:43;;;;;;;38.63;17.93;;;;;;;1.80;47.28;98935.16;5019417;28;20184;-70
2023/02/09 00:29:09;;;;;;;34.00;18.97;;;;;;;1.90;46.76;98936.50;5012458;28;20223;-72
2023/02/09 00:31:34;;;;;;;34.33;19.03;;;;;;;1.77;46.64;98927.50;5003738;28;20431;-71
2023/02/09 00:34:00;;;;;;;35.60;18.07;;;;;;;1.73;46.79;98928.53;4995874;28;20185;-69
2023/02/09 00:36:26;;;;;;;35.13;17.57;;;;;;;1.65;46.95;98926.22;5021016;28;20177;-72
2023/02/09 00:38:52;;;;;;;35.70;20.17;;;;;;;1.58;47.20;98925.59;5014562;28;20464;-72
2023/02/09 00:42:04;;;;;;;35.50;19.30;;;;;;;1.66;47.04;98920.97;5020058;28;20538;-70
2023/02/09 00:44:03;;;;;;;37.40;19.33;;;;;;;1.63;47.17;98928.00;5004490;28;20184;-67
2023/02/09 00:46:28;;;;;;;37.27;18.70;;;;;;;1.57;47.45;98923.91;5010506;28;20427;-70
2023/02/09 00:48:54;;;;;;;40.00;17.53;;;;;;;1.62;46.98;98926.31;5003737;28;20261;-70
2023/02/09 00:51:19;;;;;;;33.03;18.00;;;;;;;1.52;47.23;98921.47;4992583;28;20232;-70
2023/02/09 00:53:44;;;;;;;31.07;17.70;;;;;;;1.61;46.86;98922.03;5005339;28;20234;-70
2023/02/09 00:56:10;;;;;;;34.73;17.93;;;;;;;1.58;46.56;98925.59;4970309;28;20208;-69
2023/02/09 00:58:35;;;;;;;35.10;19.30;;;;;;;1.44;47.10;98918.31;4982533;28;20850;-68
2023/02/09 01:01:01;;;;;;;34.63;17.90;;;;;;;1.40;47.14;98914.13;4999012;28;20649;-69
2023/02/09 01:03:26;;;;;;;33.00;18.73;;;;;;;1.35;47.16;98918.63;5004586;28;20698;-68
2023/02/09 01:05:52;;;;;;;33.97;18.63;;;;;;;1.34;47.61;98919.50;4998973;28;20195;-68
2023/02/09 01:08:17;;;;;;;34.13;18.87;;;;;;;1.30;47.97;98921.34;5003941;28;20181;-68
2023/02/09 01:10:43;;;;;;;33.37;17.43;;;;;;;1.28;47.36;98912.81;5004918;28;20200;-69
2023/02/09 01:13:08;;;;;;;36.30;17.37;;;;;;;1.24;47.63;98911.25;5007545;28;20187;-68
2023/02/09 01:15:34;;;;;;;33.80;18.30;;;;;;;1.27;47.77;98915.44;4988133;28;20236;-69
2023/02/09 01:17:59;;;;;;;34.60;18.50;;;;;;;1.22;48.14;98903.53;5001454;28;20574;-70
2023/02/09 01:20:25;;;;;;;32.50;17.93;;;;;;;1.20;48.20;98899.31;5004650;28;20197;-68
2023/02/09 01:22:51;;;;;;;32.13;17.60;;;;;;;0.98;48.44;98907.78;5003690;28;20190;-68
2023/02/09 01:25:16;;;;;;;28.83;17.10;;;;;;;1.07;48.45;98910.06;4986364;28;20191;-69
2023/02/09 01:27:42;;;;;;;32.57;17.07;;;;;;;1.16;48.31;98897.72;4988047;28;20240;-70
2023/02/09 01:30:08;;;;;;;29.57;16.20;;;;;;;1.14;47.69;98894.34;5004175;28;20278;-68
2023/02/09 01:32:36;;;;;;;33.80;17.17;;;;;;;1.20;47.85;98891.56;5005813;28;20267;-69
2023/02/09 01:35:02;;;;;;;34.27;17.33;;;;;;;1.26;47.43;98888.75;5001417;28;20443;-69
2023/02/09 01:37:27;;;;;;;34.07;17.83;;;;;;;1.36;47.05;98890.16;5004997;28;20978;-69
2023/02/09 01:39:54;;;;;;;32.87;17.53;;;;;;;1.39;46.75;98889.19;5003303;28;20236;-68
2023/02/09 01:42:20;;;;;;;32.60;17.90;;;;;;;1.32;47.18;98892.91;5005351;28;20518;-66
2023/02/09 01:44:45;;;;;;;30.03;17.13;;;;;;;1.09;47.70;98888.50;5004305;28;20195;-69
2023/02/09 01:47:18;;;;;;;34.27;17.23;;;;;;;0.87;48.44;98886.63;5006713;28;20482;-71
2023/02/09 01:49:48;;;;;;;34.70;18.10;;;;;;;0.93;48.19;98891.59;5004893;28;20707;-69
2023/02/09 01:52:21;;;;;;;33.93;16.90;;;;;;;0.96;47.87;98890.63;4982552;28;20529;-69
2023/02/09 01:54:50;;;;;;;34.43;18.60;;;;;;;0.75;48.21;98893.91;4987750;28;20834;-69
2023/02/09 01:57:21;;;;;;;33.17;17.00;;;;;;;0.64;48.38;98890.78;4982216;28;20786;-70
2023/02/09 01:59:50;;;;;;;34.90;17.67;;;;;;;0.85;48.50;98888.44;4995344;28;20547;-69
2023/02/09 02:02:16;;;;;;;32.73;17.77;;;;;;;0.94;48.38;98880.38;4988167;28;20443;-70
2023/02/09 02:04:43;;;;;;;33.00;17.63;;;;;;;0.96;48.99;98883.75;4978162;28;20991;-70
2023/02/09 02:07:28;;;;;;;35.93;17.67;;;;;;;1.09;47.64;98880.75;4979457;28;20763;-70
2023/02/09 02:09:54;;;;;;;33.33;17.17;;;;;;;1.18;47.29;98878.72;4984515;28;20424;-70
2023/02/09 02:12:19;;;;;;;35.93;18.00;;;;;;;1.05;47.75;98880.84;5001188;28;20435;-69
2023/02/09 02:14:45;;;;;;;35.57;18.17;;;;;;;0.98;47.73;98887.13;4987157;28;20187;-68
2023/02/09 02:17:30;;;;;;;37.87;19.37;;;;;;;0.93;48.05;98876.09;4980962;28;20215;-67
2023/02/09 02:20:19;;;;;;;30.10;16.90;;;;;;;1.00;48.21;98872.44;4987552;28;20724;-70
2023/02/09 02:23:14;;;;;;;34.20;18.63;;;;;;;0.86;48.04;98874.63;4972543;28;20415;-70
2023/02/09 02:25:59;;;;;;;32.93;17.87;;;;;;;0.93;48.21;98865.75;4957810;28;20830;-70
2023/02/09 02:28:42;;;;;;;37.13;18.43;;;;;;;0.93;48.61;98870.94;4994134;28;20982;-68
2023/02/09 02:31:46;;;;;;;37.70;19.63;;;;;;;0.87;48.67;98871.16;5001407;28;20447;-69
2023/02/09 02:34:19;;;;;;;36.83;19.30;;;;;;;0.96;48.66;98863.09;4983212;28;20522;-69
2023/02/09 02:36:55;;;;;;;35.00;18.80;;;;;;;1.12;48.50;98865.16;4988423;28;20454;-67
2023/02/09 02:39:28;;;;;;;36.07;18.40;;;;;;;1.17;47.39;98861.53;4998591;28;20997;-69
2023/02/09 02:44:58;;;;;;;33.97;17.70;;;;;;;0.98;47.66;98863.03;4982003;28;20517;-68
2023/02/09 02:47:26;;;;;;;39.80;19.90;;;;;;;0.85;48.01;98876.34;4988488;28;20424;-69
2023/02/09 02:49:59;;;;;;;38.77;19.57;;;;;;;0.65;47.72;98873.56;5004094;28;20848;-68
2023/02/09 02:52:24;;;;;;;44.90;21.07;;;;;;;0.69;48.29;98878.59;4982583;28;20433;-69
2023/02/09 02:54:59;;;;;;;41.43;20.87;;;;;;;0.75;47.81;98878.41;5004800;28;20458;-69
2023/02/09 02:57:28;;;;;;;40.80;19.17;;;;;;;0.76;47.83;98874.06;4979042;28;20188;-69
2023/02/09 03:00:00;;;;;;;37.47;18.50;;;;;;;0.72;48.01;98877.63;4972261;28;20504;-68
2023/02/09 03:02:30;;;;;;;34.70;17.73;;;;;;;0.75;48.31;98883.56;4988606;28;20421;-70
2023/02/09 03:04:57;;;;;;;42.07;18.60;;;;;;;0.75;47.72;98877.53;4990368;28;20507;-70
2023/02/09 03:07:22;;;;;;;34.27;18.83;;;;;;;0.63;48.07;98877.94;4990226;28;20439;-68
2023/02/09 03:09:53;;;;;;;31.43;18.00;;;;;;;0.66;48.13;98870.94;5003456;28;21258;-70
2023/02/09 03:12:43;;;;;;;33.63;17.90;;;;;;;0.56;48.29;98874.69;5010742;28;20188;-70
2023/02/09 03:15:36;;;;;;;35.90;18.73;;;;;;;0.52;49.14;98866.22;4987183;28;20451;-69
2023/02/09 03:18:25;;;;;;;33.53;18.30;;;;;;;0.56;49.03;98882.44;4997466;28;20472;-69
2023/02/09 03:20:55;;;;;;;34.47;18.57;;;;;;;0.71;48.75;98875.94;4963924;28;20483;-69
2023/02/09 03:23:45;;;;;;;34.80;19.07;;;;;;;0.78;48.20;98885.19;5004258;28;20483;-69
2023/02/09 03:26:20;;;;;;;39.00;18.87;;;;;;;0.81;48.29;98886.81;4983295;28;20518;-69
2023/02/09 03:28:47;;;;;;;30.80;17.20;;;;;;;0.87;47.79;98887.47;4981864;28;20457;-70
2023/02/09 03:31:14;;;;;;;28.87;18.37;;;;;;;0.70;47.70;98875.13;5009975;28;20443;-70
2023/02/09 03:33:40;;;;;;;42.73;18.70;;;;;;;0.59;48.22;98882.34;4986338;28;20507;-70
2023/02/09 03:36:09;;;;;;;34.20;18.70;;;;;;;0.59;47.97;98890.09;4989756;28;20483;-69
2023/02/09 03:38:34;;;;;;;32.00;17.83;;;;;;;0.59;48.22;98880.59;4973229;28;20463;-69
2023/02/09 03:40:59;;;;;;;34.87;18.80;;;;;;;0.67;48.31;98875.19;5007226;28;20454;-69
2023/02/09 03:44:25;;;;;;;40.27;19.73;;;;;;;0.74;48.45;98870.69;5008549;28;20275;-70
2023/02/09 03:46:11;;;;;;;36.77;18.63;;;;;;;0.70;47.89;98875.13;5008810;28;20184;-69
2023/02/09 03:48:36;;;;;;;32.23;17.47;;;;;;;0.50;48.69;98875.75;5001468;28;20442;-70
2023/02/09 03:51:01;;;;;;;34.23;18.80;;;;;;;0.40;48.91;98871.78;5001251;28;20207;-69
2023/02/09 03:53:27;;;;;;;31.73;17.57;;;;;;;0.23;49.01;98872.28;5009386;28;20187;-69
2023/02/09 03:55:52;;;;;;;32.60;18.20;;;;;;;0.35;48.93;98873.63;5003230;28;20271;-70
2023/02/09 03:58:18;;;;;;;36.60;19.23;;;;;;;0.43;49.00;98877.66;4997566;28;20287;-68
2023/02/09 04:00:43;;;;;;;35.47;19.00;;;;;;;0.45;49.35;98883.63;5003176;28;20203;-68
2023/02/09 04:03:09;;;;;;;37.03;19.70;;;;;;;0.60;48.83;98865.97;5004998;28;20315;-67
2023/02/09 04:05:35;;;;;;;37.87;19.27;;;;;;;0.60;48.70;98876.31;4999002;28;20192;-71
2023/02/09 04:08:00;;;;;;;32.30;20.23;;;;;;;0.62;48.52;98877.09;5001568;28;20259;-68
2023/02/09 04:10:26;;;;;;;37.17;20.33;;;;;;;0.63;47.97;98871.03;5005018;28;20231;-69
2023/02/09 04:12:51;;;;;;;32.20;17.43;;;;;;;0.71;48.27;98869.06;5003637;28;20192;-69
2023/02/09 04:15:16;;;;;;;38.20;21.33;;;;;;;0.68;47.78;98876.06;5004450;28;20223;-69
2023/02/09 04:17:42;;;;;;;36.73;19.70;;;;;;;0.69;47.69;98876.00;5000235;28;20211;-69
2023/02/09 04:20:08;;;;;;;30.20;18.07;;;;;;;0.71;48.06;98881.09;5010536;28;20215;-68
2023/02/09 04:22:33;;;;;;;35.53;19.73;;;;;;;0.68;47.72;98881.22;5006024;28;20176;-69
2023/02/09 04:24:58;;;;;;;36.07;18.40;;;;;;;0.71;47.43;98873.38;5009283;28;20655;-71
2023/02/09 04:27:25;;;;;;;30.00;17.47;;;;;;;0.75;47.43;98878.41;5001156;28;20212;-71
2023/02/09 04:29:51;;;;;;;32.43;18.23;;;;;;;0.79;47.78;98876.56;4993736;28;20187;-69
2023/02/09 04:32:16;;;;;;;39.97;20.17;;;;;;;0.43;48.69;98877.66;5005053;28;20443;-67
2023/02/09 04:34:42;;;;;;;39.50;20.53;;;;;;;0.39;49.26;98881.22;4998980;28;20267;-71
2023/02/09 04:37:07;;;;;;;36.03;20.57;;;;;;;0.32;49.81;98890.06;4987851;28;20200;-68
2023/02/09 04:39:33;;;;;;;37.07;20.37;;;;;;;0.38;49.51;98879.53;5006306;28;20203;-68
2023/02/09 04:41:58;;;;;;;39.07;20.73;;;;;;;0.29;49.77;98879.81;5000808;28;20273;-69
2023/02/09 04:44:23;;;;;;;43.90;22.17;;;;;;;0.31;50.37;98888.38;4998802;28;20231;-70
2023/02/09 04:46:49;;;;;;;38.43;20.87;;;;;;;0.45;49.85;98888.78;4993502;28;20187;-68
2023/02/09 04:49:14;;;;;;;41.10;19.73;;;;;;;0.56;49.37;98892.78;5000452;28;20808;-70
2023/02/09 04:51:40;;;;;;;35.57;19.97;;;;;;;0.49;49.43;98891.28;5005129;28;20825;-70
2023/02/09 04:54:05;;;;;;;44.47;22.53;;;;;;;0.21;49.22;98894.69;4997943;28;20264;-70
2023/02/09 04:56:31;;;;;;;34.97;19.63;;;;;;;0.09;48.62;98899.34;4996045;28;20270;-69
2023/02/09 05:01:40;;;;;;;37.40;19.03;;;;;;;0.19;48.86;98891.31;5004020;28;20269;-69
2023/02/09 05:04:05;;;;;;;39.30;21.17;;;;;;;0.12;49.11;98888.94;5006612;28;20470;-67
2023/02/09 05:06:31;;;;;;;44.47;23.93;;;;;;;0.22;48.61;98891.22;5009313;28;20179;-69
2023/02/09 05:08:56;;;;;;;40.50;23.57;;;;;;;0.29;49.09;98890.16;5007703;28;20210;-69
2023/02/09 05:11:22;;;;;;;42.03;25.10;;;;;;;0.40;49.02;98890.66;5003116;28;20243;-71
2023/02/09 05:13:47;;;;;;;45.77;23.70;;;;;;;0.53;48.46;98891.13;5008627;28;20268;-71
2023/02/09 05:16:16;;;;;;;38.17;21.90;;;;;;;0.64;47.89;98888.19;5003720;28;20212;-69
2023/02/09 05:18:41;;;;;;;45.73;23.87;;;;;;;0.55;47.71;98880.75;5006920;28;20231;-70
2023/02/09 05:21:07;;;;;;;38.03;22.87;;;;;;;0.52;48.51;98880.84;5007263;28;20487;-72
2023/02/09 05:23:32;;;;;;;42.23;23.10;;;;;;;0.50;48.37;98874.91;4995042;28;20199;-69
2023/02/09 05:25:58;;;;;;;40.03;22.40;;;;;;;0.59;47.92;98872.03;5008272;28;20280;-70
2023/02/09 05:28:23;;;;;;;46.77;20.50;;;;;;;0.56;48.16;98874.69;4998110;28;20177;-69
2023/02/09 05:30:53;;;;;;;34.70;20.13;;;;;;;0.47;48.74;98878.41;5001277;28;20554;-70
2023/02/09 05:33:23;;;;;;;36.87;21.10;;;;;;;0.59;49.05;98869.47;5002910;28;20509;-69
2023/02/09 05:35:54;;;;;;;37.23;20.67;;;;;;;0.67;48.17;98874.38;5013031;28;20430;-71
2023/02/09 05:38:19;;;;;;;41.50;22.47;;;;;;;0.53;48.65;98874.78;5003323;28;20463;-69
2023/02/09 05:40:45;;;;;;;38.50;21.40;;;;;;;0.31;49.69;98878.06;5011427;28;20481;-70
2023/02/09 05:43:10;;;;;;;45.70;22.03;;;;;;;0.45;49.62;98870.72;5006995;28;20215;-68
2023/02/09 05:45:36;;;;;;;38.80;21.93;;;;;;;0.60;48.88;98869.41;4996538;28;20186;-68
2023/02/09 05:48:01;;;;;;;36.93;21.67;;;;;;;0.61;48.58;98870.25;5006492;28;20173;-70
2023/02/09 05:50:27;;;;;;;41.90;21.00;;;;;;;0.69;48.43;98870.00;5002700;28;20218;-70
2023/02/09 05:52:52;;;;;;;41.97;22.73;;;;;;;0.68;48.78;98871.72;4993466;28;20187;-70
2023/02/09 05:55:18;;;;;;;40.17;22.53;;;;;;;0.75;48.80;98867.22;5007500;28;20250;-70
2023/02/09 05:57:43;;;;;;;43.90;23.73;;;;;;;0.71;48.58;98870.78;5004567;28;20558;-68
2023/02/09 06:00:10;;;;;;;41.30;22.43;;;;;;;0.69;48.12;98867.44;5003632;28;20737;-68
2023/02/09 06:02:35;;;;;;;35.57;21.17;;;;;;;0.65;47.86;98866.66;4979500;28;20195;-69
2023/02/09 06:05:00;;;;;;;41.40;22.93;;;;;;;0.43;48.52;98872.50;5005740;28;20796;-70
2023/02/09 06:07:26;;;;;;;39.40;21.47;;;;;;;0.49;48.29;98871.47;5005368;28;22015;-70
2023/02/09 06:09:51;;;;;;;44.30;22.83;;;;;;;0.42;48.26;98875.97;4997529;28;20189;-70
2023/02/09 06:12:17;;;;;;;42.37;22.93;;;;;;;0.41;48.31;98873.47;5006751;28;20229;-70
2023/02/09 06:14:42;;;;;;;45.83;22.20;;;;;;;0.45;48.08;98878.47;4994142;28;20219;-71
2023/02/09 06:17:08;;;;;;;42.07;21.93;;;;;;;0.51;48.43;98881.72;5004435;28;20666;-66
2023/02/09 06:19:33;;;;;;;38.20;22.80;;;;;;;0.50;48.24;98892.97;5003492;28;20548;-71
2023/02/09 06:21:58;;;;;;;41.97;22.87;;;;;;;0.30;48.62;98889.25;4994469;28;20693;-72
2023/02/09 06:24:24;;;;;;;52.43;24.20;;;;;;;0.24;48.43;98890.28;5005209;28;20605;-69
2023/02/09 06:26:49;;;;;;;47.20;23.13;;;;;;;0.29;48.41;98890.16;4981518;28;20247;-68
2023/02/09 06:29:15;;;;;;;43.50;22.90;;;;;;;0.41;48.62;98892.34;5002450;28;20183;-69
2023/02/09 06:31:40;;;;;;;45.20;26.67;;;;;;;0.45;48.44;98896.53;4994080;28;20283;-69
2023/02/09 06:34:07;;;;;;;45.33;22.23;;;;;;;0.41;48.59;98901.84;4998019;28;20181;-71
2023/02/09 06:36:32;;;;;;;48.17;25.50;;;;;;;0.13;49.01;98912.97;4986422;28;20176;-70
2023/02/09 06:38:58;;;;;;;42.97;24.27;;;;;;;0.02;49.53;98910.69;4999590;28;20512;-69
2023/02/09 06:41:23;;;;;;;50.90;24.20;;;;;;;-0.04;50.00;98918.63;5009315;28;20215;-70
2023/02/09 06:43:49;;;;;;;47.30;23.30;;;;;;;-0.11;49.25;98907.63;5004542;28;20679;-70
2023/02/09 06:46:14;;;;;;;43.53;23.43;;;;;;;-0.13;49.53;98913.75;5002131;28;20263;-70
2023/02/09 06:48:40;;;;;;;45.47;23.20;;;;;;;-0.09;49.96;98917.91;5000783;28;20224;-70
2023/02/09 06:51:12;;;;;;;46.40;22.27;;;;;;;-0.19;50.50;98920.75;5008611;28;20213;-71
2023/02/09 06:53:39;;;;;;;47.10;25.93;;;;;;;-0.22;51.07;98925.97;5001885;28;20211;-69
2023/02/09 06:56:04;;;;;;;43.60;23.50;;;;;;;-0.07;50.74;98923.84;5008372;28;20434;-70
2023/02/09 06:58:30;;;;;;;49.47;24.30;;;;;;;-0.13;51.64;98926.63;5002688;28;20460;-69
2023/02/09 07:01:03;;;;;;;49.43;25.60;;;;;;;-0.04;51.58;98923.78;5004363;28;20212;-69
2023/02/09 07:03:28;;;;;;;47.77;24.50;;;;;;;0.12;51.04;98930.19;4992043;28;20183;-69
2023/02/09 07:05:54;;;;;;;49.30;25.60;;;;;;;0.24;50.66;98931.56;5004588;28;20933;-71
2023/02/09 07:08:19;;;;;;;43.40;23.70;;;;;;;0.32;50.12;98938.22;5008055;28;20181;-68
2023/02/09 07:10:45;;;;;;;50.03;25.03;;;;;;;0.36;50.56;98938.09;5007394;28;20773;-68
2023/02/09 07:13:10;;;;;;;43.50;24.13;;;;;;;0.37;50.55;98936.34;5008876;28;20632;-69
2023/02/09 07:15:36;;;;;;;45.17;23.90;;;;;;;0.41;49.78;98935.38;5008721;28;20215;-68
2023/02/09 07:18:01;;;;;;;41.30;23.83;;;;;;;0.35;49.88;98941.56;5010372;28;20273;-70
2023/02/09 07:20:26;;;;;;;44.10;22.93;;;;;;;0.41;49.83;98936.22;5008508;28;20282;-70
2023/02/09 07:22:52;;;;;;;49.57;24.53;;;;;;;0.40;49.56;98950.00;4964875;28;20207;-70
2023/02/09 07:25:17;;;;;;;47.97;25.17;;;;;;;0.28;50.00;98946.06;5004186;28;20203;-67
2023/02/09 07:27:43;;;;;;;55.17;25.60;;;;;;;0.38;49.83;98938.88;5006496;28;20193;-69
2023/02/09 07:30:10;;;;;;;52.90;24.90;;;;;;;0.48;49.55;98946.38;5009587;28;20183;-70
2023/02/09 07:32:38;;;;;;;48.70;27.60;;;;;;;0.44;49.97;98951.59;5012332;28;20418;-71
2023/02/09 07:35:04;;;;;;;46.40;25.47;;;;;;;0.50;50.42;98952.31;5011125;28;20411;-70
2023/02/09 07:37:30;;;;;;;50.00;26.63;;;;;;;0.44;50.88;98953.34;5008619;28;20427;-70
2023/02/09 07:39:55;;;;;;;49.80;26.20;;;;;;;0.46;51.08;98959.28;5000125;28;20790;-69
2023/02/09 07:42:20;;;;;;;49.80;26.47;;;;;;;0.58;50.99;98953.75;5008662;28;20200;-69
2023/02/09 07:44:46;;;;;;;57.70;27.73;;;;;;;0.65;50.58;98962.16;5008634;28;20241;-72
2023/02/09 07:47:12;;;;;;;52.17;28.90;;;;;;;0.57;51.20;98953.81;4992157;28;20187;-70
2023/02/09 07:49:37;;;;;;;60.80;28.30;;;;;;;0.55;51.58;98956.47;4955921;28;20187;-71
2023/02/09 07:52:03;;;;;;;48.67;28.13;;;;;;;0.74;50.86;98949.00;5009915;28;20204;-71
2023/02/09 07:54:28;;;;;;;48.50;25.67;;;;;;;0.85;50.45;98952.97;4989228;28;20234;-71
2023/02/09 07:56:54;;;;;;;54.40;29.87;;;;;;;0.79;51.29;98956.59;5012131;28;20184;-72
2023/02/09 07:59:20;;;;;;;53.67;30.20;;;;;;;0.83;51.76;98959.91;5002339;28;20204;-71
2023/02/09 08:01:45;;;;;;;59.33;29.73;;;;;;;1.01;50.58;98945.56;5005300;28;20506;-72
2023/02/09 08:04:11;;;;;;;52.10;30.17;;;;;;;1.07;50.66;98953.97;4990637;28;20164;-70
2023/02/09 08:06:43;;;;;;;59.50;30.37;;;;;;;1.16;50.54;98955.41;5006178;28;20204;-70
2023/02/09 08:09:11;;;;;;;50.20;28.97;;;;;;;1.21;50.42;98952.66;5007236;28;20172;-69
2023/02/09 08:11:53;;;;;;;44.77;26.70;;;;;;;1.36;50.22;98949.59;4992617;28;20917;-69
2023/02/09 08:14:31;;;;;;;50.40;27.83;;;;;;;1.37;50.09;98940.94;4988799;28;20411;-71
2023/02/09 08:17:19;;;;;;;51.77;29.30;;;;;;;1.59;50.15;98947.09;4990601;28;20999;-71
2023/02/09 08:19:47;;;;;;;60.87;29.40;;;;;;;1.82;49.85;98947.16;5007576;28;20539;-68
2023/02/09 08:22:13;;;;;;;60.53;30.50;;;;;;;2.06;49.17;98948.88;5011266;28;20439;-70
2023/02/09 08:24:39;;;;;;;48.77;27.10;;;;;;;2.43;47.95;98950.97;4988294;28;20457;-73
2023/02/09 08:27:04;;;;;;;54.70;28.13;;;;;;;2.59;48.54;98951.22;4950839;28;20560;-69
2023/02/09 08:29:30;;;;;;;50.50;28.20;;;;;;;2.86;47.42;98953.63;5008612;28;20460;-69
2023/02/09 08:31:55;;;;;;;59.20;28.33;;;;;;;3.08;47.05;98952.75;5002344;28;20204;-71
2023/02/09 08:34:21;;;;;;;52.80;29.80;;;;;;;3.47;47.00;98949.44;5009577;28;20176;-72
2023/02/09 08:36:46;;;;;;;53.00;29.17;;;;;;;3.82;46.19;98941.88;5004487;28;20177;-70
2023/02/09 08:39:12;;;;;;;49.70;27.37;;;;;;;3.96;45.18;98943.88;5005513;28;20614;-71
2023/02/09 08:41:37;;;;;;;52.13;28.87;;;;;;;4.11;44.40;98942.34;5004318;28;20204;-67
2023/02/09 08:44:03;;;;;;;47.83;28.60;;;;;;;4.50;44.71;98950.97;4995097;28;20192;-70
2023/02/09 08:46:28;;;;;;;48.70;28.10;;;;;;;4.65;43.53;98939.03;5008266;28;20180;-69
2023/02/09 08:48:54;;;;;;;48.20;28.33;;;;;;;4.55;43.09;98938.63;4999149;28;20261;-70
2023/02/09 08:51:19;;;;;;;47.83;27.50;;;;;;;5.04;43.45;98943.22;5007987;28;20295;-69
2023/02/09 08:53:50;;;;;;;50.20;29.80;;;;;;;5.13;42.68;98948.91;4987222;28;20178;-70
2023/02/09 08:56:17;;;;;;;48.33;28.73;;;;;;;5.36;42.01;98948.59;4963796;28;20278;-74
2023/02/09 08:58:42;;;;;;;48.60;28.50;;;;;;;5.52;41.22;98943.47;4986033;28;20455;-69
2023/02/09 09:01:08;;;;;;;51.70;29.00;;;;;;;5.64;41.25;98942.00;4999653;28;21150;-69
2023/02/09 09:03:34;;;;;;;48.80;29.60;;;;;;;6.11;40.77;98943.06;5006650;28;20200;-69
2023/02/09 09:06:01;;;;;;;58.23;30.47;;;;;;;6.34;40.23;98942.75;4994360;28;20420;-70
2023/02/09 09:08:27;;;;;;;52.97;30.03;;;;;;;6.60;40.07;98939.56;5001940;28;20199;-70
2023/02/09 09:10:53;;;;;;;50.53;28.67;;;;;;;6.33;38.79;98941.06;4992450;28;20444;-70
2023/02/09 09:13:19;;;;;;;46.13;28.10;;;;;;;6.68;39.46;98946.16;5001371;28;20826;-70
2023/02/09 09:15:44;;;;;;;47.83;26.93;;;;;;;6.98;38.72;98942.72;4996016;28;20184;-70
2023/02/09 09:18:10;;;;;;;48.10;27.70;;;;;;;6.97;38.90;98943.66;4996467;28;20464;-73
2023/02/09 09:20:39;;;;;;;47.77;27.90;;;;;;;7.09;38.56;98939.53;4999299;28;20201;-70
2023/02/09 09:23:05;;;;;;;53.33;29.53;;;;;;;7.38;37.83;98941.28;4998055;28;20187;-71
2023/02/09 09:25:31;;;;;;;42.70;28.47;;;;;;;7.44;38.70;98939.25;5000150;28;20423;-70
2023/02/09 09:27:56;;;;;;;43.13;27.43;;;;;;;7.73;37.01;98945.34;4993134;28;20205;-73
2023/02/09 09:30:22;;;;;;;45.60;27.63;;;;;;;8.02;36.92;98953.19;5003254;28;20208;-69
2023/02/09 09:32:47;;;;;;;50.47;27.03;;;;;;;8.11;36.62;98949.19;4992972;28;20732;-70
2023/02/09 09:35:12;;;;;;;43.00;27.53;;;;;;;8.13;36.74;98952.53;4999078;28;20173;-71
2023/02/09 09:37:39;;;;;;;49.93;28.70;;;;;;;8.25;36.21;98964.00;4977052;28;20259;-69
2023/02/09 09:40:05;;;;;;;42.90;28.07;;;;;;;8.33;35.87;98959.13;4996897;28;20204;-70
2023/02/09 09:42:37;;;;;;;48.63;26.17;;;;;;;8.53;35.98;98964.94;4984427;28;20435;-70
2023/02/09 09:45:04;;;;;;;47.03;28.53;;;;;;;8.66;35.93;98965.84;4975087;28;20428;-71
2023/02/09 09:47:37;;;;;;;43.63;28.30;;;;;;;8.64;35.91;98962.50;5004125;28;20465;-71
2023/02/09 09:50:07;;;;;;;46.47;29.10;;;;;;;8.80;35.20;98966.75;4961244;28;20511;-72
2023/02/09 09:52:36;;;;;;;46.33;27.80;;;;;;;8.81;34.98;98963.19;4992747;28;20418;-69
2023/02/09 09:55:05;;;;;;;42.60;27.47;;;;;;;9.00;34.88;98968.91;4980217;28;20504;-69
2023/02/09 09:57:31;;;;;;;40.27;26.00;;;;;;;9.03;34.47;98973.94;5001871;28;20788;-70
2023/02/09 09:59:57;;;;;;;47.50;28.10;;;;;;;9.08;34.51;98976.25;4962980;28;20539;-72
2023/02/09 10:02:26;;;;;;;45.03;27.57;;;;;;;9.33;33.61;98974.66;4993993;28;20444;-70
2023/02/09 10:04:53;;;;;;;46.50;28.90;;;;;;;9.65;33.81;98975.13;4996523;28;20200;-71
2023/02/09 10:07:20;;;;;;;39.20;26.33;;;;;;;9.83;33.61;98967.81;4984534;28;20539;-72
2023/02/09 10:09:52;;;;;;;40.90;27.40;;;;;;;10.28;33.74;98970.00;4999131;28;20436;-70
2023/02/09 10:12:38;;;;;;;51.97;27.60;;;;;;;10.32;33.10;98967.16;4980866;28;20519;-72
2023/02/09 10:15:32;;;;;;;39.97;27.37;;;;;;;9.88;32.41;98964.88;4977612;28;20420;-71
2023/02/09 10:17:58;;;;;;;42.97;26.30;;;;;;;9.52;32.84;98975.09;5001593;28;20529;-70
2023/02/09 10:20:41;;;;;;;48.93;26.50;;;;;;;10.00;32.82;98976.31;4982318;28;20448;-71
2023/02/09 10:23:40;;;;;;;42.90;27.33;;;;;;;10.26;32.63;98964.00;4968816;28;20184;-71
2023/02/09 10:26:06;;;;;;;38.83;25.70;;;;;;;10.76;32.39;98960.56;4966670;28;20443;-70
2023/02/09 10:28:39;;;;;;;37.73;26.00;;;;;;;10.87;31.38;98963.25;4981815;28;20473;-69
2023/02/09 10:31:18;;;;;;;54.73;26.53;;;;;;;11.13;31.07;98971.00;4979210;28;20618;-71
2023/02/09 10:33:45;;;;;;;43.47;25.73;;;;;;;11.27;30.46;98966.53;4977548;28;20434;-70
2023/02/09 10:37:06;;;;;;;41.63;27.80;;;;;;;11.52;30.87;98955.88;5003024;28;20458;-72
2023/02/09 10:39:33;;;;;;;42.43;26.83;;;;;;;11.81;30.46;98955.44;4982139;28;20496;-72
2023/02/09 10:42:15;;;;;;;39.67;25.70;;;;;;;11.94;29.96;98955.34;4980932;28;20494;-74
2023/02/09 10:44:48;;;;;;;41.80;26.47;;;;;;;11.96;30.01;98949.97;4977387;28;20431;-69
2023/02/09 10:47:19;;;;;;;40.23;24.60;;;;;;;12.05;29.02;98954.53;4984927;28;20834;-71
2023/02/09 10:49:53;;;;;;;39.87;24.87;;;;;;;12.06;29.17;98950.09;5001707;28;20499;-70
2023/02/09 10:52:21;;;;;;;41.03;24.57;;;;;;;12.19;28.94;98952.63;5003744;28;20443;-70
2023/02/09 10:54:55;;;;;;;34.20;22.87;;;;;;;12.36;28.00;98946.88;5003152;28;20455;-71
2023/02/09 10:57:37;;;;;;;36.73;24.00;;;;;;;12.49;28.36;98945.91;5004970;28;20425;-72
2023/02/09 11:00:14;;;;;;;36.37;24.13;;;;;;;11.79;28.72;98944.22;5003719;28;20547;-70
2023/02/09 11:02:47;;;;;;;39.00;24.93;;;;;;;12.12;28.49;98939.97;4993222;28;20442;-71
2023/02/09 11:05:19;;;;;;;34.17;24.40;;;;;;;12.21;28.25;98937.59;4982927;28;20427;-71
2023/02/09 11:07:47;;;;;;;34.07;24.10;;;;;;;12.19;28.54;98939.50;4998317;28;20447;-72
2023/02/09 11:10:13;;;;;;;47.63;24.73;;;;;;;12.46;28.61;98946.16;4998400;28;20515;-72
2023/02/09 11:12:38;;;;;;;35.03;22.77;;;;;;;12.02;28.26;98936.38;4998446;28;20514;-72
2023/02/09 11:15:12;;;;;;;44.67;23.30;;;;;;;12.24;28.02;98937.31;4994901;28;20822;-69
2023/02/09 11:17:43;;;;;;;38.27;24.47;;;;;;;12.39;28.12;98936.13;4994676;28;20211;-71
2023/02/09 11:20:35;;;;;;;33.60;22.87;;;;;;;12.67;27.62;98930.44;4982326;28;20947;-69
2023/02/09 11:23:00;;;;;;;35.57;23.53;;;;;;;12.78;27.58;98932.22;4986801;28;20431;-70
2023/02/09 11:25:40;;;;;;;35.60;23.07;;;;;;;12.94;27.26;98930.00;4999097;28;20544;-70
2023/02/09 11:28:24;;;;;;;37.50;23.77;;;;;;;13.15;27.13;98921.31;4984183;28;20191;-73
2023/02/09 11:30:59;;;;;;;35.13;23.00;;;;;;;13.15;27.33;98924.78;5002194;28;20447;-72
2023/02/09 11:33:51;;;;;;;35.33;24.30;;;;;;;12.64;27.41;98922.81;5003845;28;20432;-71
2023/02/09 11:36:35;;;;;;;37.50;23.80;;;;;;;12.49;28.18;98922.22;5008483;28;20435;-71
2023/02/09 11:39:04;;;;;;;35.90;24.20;;;;;;;12.38;27.99;98915.22;4996457;28;20432;-71
2023/02/09 11:44:33;;;;;;;36.00;23.37;;;;;;;11.81;28.22;98905.53;4987991;28;20959;-71